createdAt,value
2023-04-05T00:01:07.754Z,48.01
2023-04-05T00:03:36.232Z,48.30
2023-04-05T00:06:05.533Z,48.39
2023-04-05T00:08:33.601Z,48.47
2023-04-05T00:11:01.836Z,48.56
2023-04-05T00:13:30.564Z,48.61
2023-04-05T00:16:01.325Z,48.54
2023-04-05T00:18:34.385Z,48.64
2023-04-05T00:21:02.624Z,48.62
2023-04-05T00:23:39.772Z,48.34
2023-04-05T00:26:07.901Z,48.75
2023-04-05T00:28:36.911Z,48.92
2023-04-05T00:31:05.619Z,48.78
2023-04-05T00:33:35.365Z,48.92
2023-04-05T00:36:11.410Z,48.36
2023-04-05T00:38:39.623Z,48.53
2023-04-05T00:41:07.621Z,48.68
2023-04-05T00:43:35.586Z,48.56
2023-04-05T00:46:03.665Z,48.75
2023-04-05T00:48:31.875Z,48.61
2023-04-05T00:51:01.220Z,48.71
2023-04-05T00:53:29.166Z,48.44
2023-04-05T00:55:57.728Z,48.24
2023-04-05T00:58:25.906Z,48.34
2023-04-05T01:00:59.436Z,48.21
2023-04-05T01:03:27.672Z,48.38
2023-04-05T01:06:00.503Z,48.03
2023-04-05T01:08:35.285Z,48.18
2023-04-05T01:11:05.577Z,48.19
2023-04-05T01:13:33.807Z,48.29
2023-04-05T01:16:01.835Z,47.99
2023-04-05T01:18:31.171Z,47.96
2023-04-05T01:21:03.079Z,47.99
2023-04-05T01:23:38.971Z,48.17
2023-04-05T01:26:32.786Z,48.43
2023-04-05T01:29:19.079Z,48.54
2023-04-05T01:31:48.694Z,48.50
2023-04-05T01:34:20.324Z,48.78
2023-04-05T01:36:51.441Z,48.75
2023-04-05T01:39:20.801Z,48.53
2023-04-05T01:41:48.723Z,48.41
2023-04-05T01:44:16.980Z,48.18
2023-04-05T01:46:46.408Z,48.40
2023-04-05T01:49:14.621Z,48.27
2023-04-05T01:51:42.796Z,48.39
2023-04-05T01:54:10.903Z,48.32
2023-04-05T01:56:38.856Z,48.39
2023-04-05T01:59:06.846Z,48.48
2023-04-05T02:01:34.829Z,48.30
2023-04-05T02:04:04.132Z,48.41
2023-04-05T02:06:32.367Z,48.40
2023-04-05T02:09:03.139Z,48.24
2023-04-05T02:11:31.287Z,48.01
2023-04-05T02:14:00.410Z,48.10
2023-04-05T02:16:28.554Z,48.29
2023-04-05T02:18:59.802Z,48.11
2023-04-05T02:21:30.013Z,48.04
2023-04-05T02:23:58.152Z,47.96
2023-04-05T02:26:26.280Z,47.99
2023-04-05T02:28:54.415Z,48.04
2023-04-05T02:31:22.618Z,48.20
2023-04-05T02:33:50.530Z,48.15
2023-04-05T02:36:18.566Z,48.10
2023-04-05T02:38:48.056Z,48.22
2023-04-05T02:41:16.085Z,48.10
2023-04-05T02:43:44.072Z,48.20
2023-04-05T02:46:12.072Z,48.14
2023-04-05T02:48:43.426Z,48.14
2023-04-05T02:51:13.442Z,48.36
2023-04-05T02:53:42.520Z,48.48
2023-04-05T02:56:14.863Z,48.40
2023-04-05T02:58:47.866Z,48.51
2023-04-05T03:01:17.933Z,48.51
2023-04-05T03:03:47.072Z,48.54
2023-04-05T03:06:17.111Z,48.79
2023-04-05T03:08:49.836Z,48.93
2023-04-05T03:11:28.204Z,48.97
2023-04-05T03:13:59.591Z,49.28
2023-04-05T03:16:46.633Z,49.15
2023-04-05T03:19:32.111Z,49.48
2023-04-05T03:22:10.582Z,49.34
2023-04-05T03:24:39.586Z,49.80
2023-04-05T03:27:15.181Z,50.17
2023-04-05T03:30:07.572Z,50.02
2023-04-05T03:32:40.918Z,50.17
2023-04-05T03:35:21.617Z,50.49
2023-04-05T03:37:49.927Z,50.33
2023-04-05T03:40:19.167Z,50.38
2023-04-05T03:42:50.266Z,50.45
2023-04-05T03:45:23.010Z,50.65
2023-04-05T03:47:53.168Z,50.68
2023-04-05T03:50:21.917Z,50.80
2023-04-05T03:52:50.189Z,50.89
2023-04-05T03:55:18.651Z,50.96
2023-04-05T03:57:48.958Z,50.74
2023-04-05T04:00:37.247Z,50.91
2023-04-05T04:03:26.021Z,51.00
2023-04-05T04:05:54.211Z,51.13
2023-04-05T04:08:22.435Z,51.26
2023-04-05T04:10:50.821Z,51.10
2023-04-05T04:13:41.117Z,51.17
2023-04-05T04:16:44.680Z,51.42
2023-04-05T04:19:40.447Z,51.15
2023-04-05T04:22:26.864Z,51.42
2023-04-05T04:25:14.698Z,51.43
2023-04-05T04:28:06.723Z,51.53
2023-04-05T04:30:50.489Z,51.74
2023-04-05T04:33:38.072Z,51.74
2023-04-05T04:36:14.867Z,52.04
2023-04-05T04:39:02.609Z,51.83
2023-04-05T04:42:05.977Z,52.18
2023-04-05T04:45:04.344Z,52.10
2023-04-05T04:47:50.061Z,52.16
2023-04-05T04:50:40.861Z,52.16
2023-04-05T04:53:08.919Z,52.05
2023-04-05T04:55:39.513Z,52.23
2023-04-05T04:58:10.258Z,52.55
2023-04-05T05:00:40.255Z,52.68
2023-04-05T05:03:11.419Z,52.53
2023-04-05T05:05:43.640Z,52.42
2023-04-05T05:08:11.782Z,52.75
2023-04-05T05:10:41.522Z,52.84
2023-04-05T05:13:11.557Z,52.91
2023-04-05T05:15:40.958Z,53.22
2023-04-05T05:18:10.524Z,53.27
2023-04-05T05:20:38.698Z,53.26
2023-04-05T05:23:06.821Z,53.53
2023-04-05T05:25:34.805Z,53.18
2023-04-05T05:28:02.909Z,53.35
2023-04-05T05:30:31.955Z,53.15
2023-04-05T05:33:00.097Z,53.65
2023-04-05T05:35:29.441Z,53.61
2023-04-05T05:37:57.659Z,53.82
2023-04-05T05:40:27.122Z,53.77
2023-04-05T05:42:55.079Z,53.71
2023-04-05T05:45:23.203Z,53.78
2023-04-05T05:47:51.209Z,53.88
2023-04-05T05:50:20.669Z,53.92
2023-04-05T05:52:50.755Z,54.15
2023-04-05T05:55:18.965Z,54.31
2023-04-05T05:57:46.980Z,54.81
2023-04-05T06:00:16.500Z,55.03
2023-04-05T06:02:44.741Z,54.59
2023-04-05T06:05:12.998Z,54.69
2023-04-05T06:07:41.220Z,55.30
2023-04-05T06:10:12.004Z,54.80
2023-04-05T06:12:39.944Z,55.25
2023-04-05T06:15:09.199Z,55.38
2023-04-05T06:17:42.039Z,54.92
2023-04-05T06:20:13.777Z,55.25
2023-04-05T06:22:41.987Z,55.24
2023-04-05T06:25:12.986Z,55.15
2023-04-05T06:27:41.192Z,55.17
2023-04-05T06:30:10.092Z,55.44
2023-04-05T06:32:38.096Z,55.43
2023-04-05T06:35:07.328Z,55.65
2023-04-05T06:37:35.378Z,55.90
2023-04-05T06:40:03.475Z,56.31
2023-04-05T06:42:33.051Z,56.33
2023-04-05T06:45:05.635Z,56.02
2023-04-05T06:47:35.227Z,56.14
2023-04-05T06:50:03.392Z,56.06
2023-04-05T06:52:31.409Z,56.41
2023-04-05T06:54:59.351Z,56.24
2023-04-05T06:57:27.417Z,56.61
2023-04-05T06:59:56.810Z,56.45
2023-04-05T07:02:24.817Z,56.67
2023-04-05T07:04:53.503Z,56.61
2023-04-05T07:07:22.579Z,56.72
2023-04-05T07:09:50.800Z,56.50
2023-04-05T07:12:18.747Z,57.14
2023-04-05T07:14:46.773Z,57.02
2023-04-05T07:17:16.282Z,57.10
2023-04-05T07:19:44.332Z,57.00
2023-04-05T07:22:12.354Z,57.03
2023-04-05T07:24:40.340Z,57.23
2023-04-05T07:27:08.529Z,57.19
2023-04-05T07:29:40.656Z,57.34
2023-04-05T07:32:09.071Z,57.37
2023-04-05T07:34:38.813Z,57.36
2023-04-05T07:37:06.904Z,57.46
2023-04-05T07:39:35.055Z,57.20
2023-04-05T07:42:02.984Z,57.56
2023-04-05T07:44:30.999Z,57.77
2023-04-05T07:46:59.199Z,57.74
2023-04-05T07:49:27.794Z,58.22
2023-04-05T07:51:57.708Z,57.93
2023-04-05T07:54:25.838Z,58.08
2023-04-05T07:56:55.413Z,58.19
2023-04-05T07:59:23.524Z,58.19
2023-04-05T08:01:53.927Z,58.13
2023-04-05T08:04:26.280Z,58.20
2023-04-05T08:06:54.485Z,58.31
2023-04-05T08:09:23.844Z,58.17
2023-04-05T08:11:51.879Z,58.04
2023-04-05T08:14:19.962Z,58.37
2023-04-05T08:16:49.531Z,58.34
2023-04-05T08:19:18.016Z,58.75
2023-04-05T08:21:46.182Z,58.76
2023-04-05T08:24:14.500Z,59.00
2023-04-05T08:26:44.167Z,59.02
2023-04-05T08:29:12.363Z,59.35
2023-04-05T08:31:40.509Z,59.35
2023-04-05T08:34:08.593Z,59.51
2023-04-05T08:36:37.063Z,59.70
2023-04-05T08:39:05.483Z,60.00
2023-04-05T08:41:36.577Z,59.93
2023-04-05T08:44:07.102Z,59.80
2023-04-05T08:46:35.601Z,60.00
2023-04-05T08:49:06.372Z,59.95
2023-04-05T08:51:34.512Z,59.86
2023-04-05T08:54:02.952Z,59.86
2023-04-05T08:56:33.380Z,60.08
2023-04-05T08:59:04.135Z,60.04
2023-04-05T09:01:34.427Z,59.89
2023-04-05T09:04:03.705Z,60.02
2023-04-05T09:06:31.914Z,59.76
2023-04-05T09:09:00.092Z,59.86
2023-04-05T09:11:28.238Z,59.82
2023-04-05T09:13:56.224Z,59.85
2023-04-05T09:16:24.329Z,59.88
2023-04-05T09:18:53.725Z,59.71
2023-04-05T09:21:23.503Z,59.60
2023-04-05T09:23:56.114Z,59.59
2023-04-05T09:26:25.267Z,59.80
2023-04-05T09:28:57.910Z,59.65
2023-04-05T09:31:33.003Z,59.50
2023-04-05T09:34:03.633Z,59.43
2023-04-05T09:36:32.984Z,59.40
2023-04-05T09:39:09.000Z,59.32
2023-04-05T09:41:37.511Z,59.51
2023-04-05T09:44:06.179Z,59.29
2023-04-05T09:46:35.588Z,59.30
2023-04-05T09:49:07.275Z,59.21
2023-04-05T09:51:35.853Z,59.20
2023-04-05T09:54:06.801Z,59.06
2023-04-05T09:56:35.608Z,59.12
2023-04-05T09:59:04.704Z,59.09
2023-04-05T10:01:32.910Z,58.85
2023-04-05T10:04:01.364Z,59.11
2023-04-05T10:06:40.633Z,58.96
2023-04-05T10:09:09.579Z,59.15
2023-04-05T10:11:38.125Z,58.86
2023-04-05T10:14:06.849Z,58.83
2023-04-05T10:16:46.556Z,58.95
2023-04-05T10:19:17.635Z,58.95
2023-04-05T10:21:47.117Z,58.98
2023-04-05T10:24:19.770Z,59.09
2023-04-05T10:26:56.240Z,59.20
2023-04-05T10:29:27.260Z,59.02
2023-04-05T10:31:58.442Z,59.42
2023-04-05T10:34:31.447Z,59.29
2023-04-05T10:37:02.750Z,59.44
2023-04-05T10:39:31.331Z,59.57
2023-04-05T10:42:04.124Z,59.92
2023-04-05T10:44:33.434Z,60.12
2023-04-05T10:47:03.237Z,60.35
2023-04-05T10:49:35.335Z,60.07
2023-04-05T10:52:04.833Z,59.92
2023-04-05T10:54:34.270Z,59.86
2023-04-05T10:57:02.772Z,59.56
2023-04-05T10:59:31.315Z,59.09
2023-04-05T11:01:59.680Z,58.01
2023-04-05T11:04:28.035Z,57.38
2023-04-05T11:07:16.893Z,57.47
2023-04-05T11:09:56.015Z,57.49
2023-04-05T11:12:57.218Z,57.50
2023-04-05T11:15:33.047Z,57.28
2023-04-05T11:18:10.618Z,57.33
2023-04-05T11:20:48.445Z,57.86
2023-04-05T11:23:18.801Z,57.78
2023-04-05T11:25:53.187Z,58.10
2023-04-05T11:28:25.593Z,58.66
2023-04-05T11:30:57.035Z,58.84
2023-04-05T11:33:38.423Z,58.81
2023-04-05T11:36:06.985Z,59.09
2023-04-05T11:38:37.319Z,59.21
2023-04-05T11:41:17.804Z,59.28
2023-04-05T11:43:47.464Z,59.17
2023-04-05T11:46:23.369Z,59.51
2023-04-05T11:48:51.448Z,59.60
2023-04-05T11:51:20.034Z,59.56
2023-04-05T11:53:49.457Z,59.38
2023-04-05T11:56:17.491Z,59.19
2023-04-05T11:58:45.769Z,59.24
2023-04-05T12:01:14.722Z,59.64
2023-04-05T12:03:42.817Z,59.60
2023-04-05T12:06:11.006Z,59.64
2023-04-05T12:08:39.931Z,59.91
2023-04-05T12:11:10.207Z,60.00
2023-04-05T12:13:38.507Z,60.15
2023-04-05T12:16:07.908Z,60.07
2023-04-05T12:18:36.883Z,59.99
2023-04-05T12:21:07.620Z,59.92
2023-04-05T12:23:38.260Z,59.71
2023-04-05T12:26:09.003Z,59.50
2023-04-05T12:28:57.888Z,59.36
2023-04-05T12:31:39.759Z,59.32
2023-04-05T12:34:08.066Z,59.24
2023-04-05T12:36:36.339Z,59.01
2023-04-05T12:39:07.770Z,59.08
2023-04-05T12:41:37.953Z,58.71
2023-04-05T12:44:13.099Z,58.70
2023-04-05T12:46:41.706Z,58.51
2023-04-05T12:49:12.196Z,58.55
2023-04-05T12:51:43.587Z,58.58
2023-04-05T12:54:13.415Z,58.50
2023-04-05T12:56:42.937Z,58.41
2023-04-05T12:59:13.432Z,58.42
2023-04-05T13:01:44.424Z,58.56
2023-04-05T13:04:23.398Z,58.83
2023-04-05T13:06:51.808Z,58.92
2023-04-05T13:09:19.866Z,59.27
2023-04-05T13:11:49.970Z,59.44
2023-04-05T13:14:18.010Z,59.49
2023-04-05T13:16:46.220Z,59.77
2023-04-05T13:19:14.275Z,59.85
2023-04-05T13:21:42.762Z,59.85
2023-04-05T13:24:12.791Z,59.65
2023-04-05T13:26:41.365Z,59.74
2023-04-05T13:29:11.081Z,60.09
2023-04-05T13:31:40.914Z,59.94
2023-04-05T13:34:09.192Z,60.05
2023-04-05T13:36:37.248Z,60.13
2023-04-05T13:39:05.430Z,60.29
2023-04-05T13:41:33.397Z,60.38
2023-04-05T13:44:02.905Z,60.63
2023-04-05T13:46:35.589Z,60.54
2023-04-05T13:49:04.230Z,60.61
2023-04-05T13:51:34.515Z,60.75
2023-04-05T13:54:11.698Z,60.66
2023-04-05T13:56:40.087Z,60.74
2023-04-05T13:59:08.325Z,60.76
2023-04-05T14:01:38.078Z,60.90
2023-04-05T14:04:09.211Z,60.67
2023-04-05T14:06:39.364Z,60.78
2023-04-05T14:09:08.892Z,61.05
2023-04-05T14:11:37.054Z,61.09
2023-04-05T14:14:05.099Z,61.11
2023-04-05T14:16:34.583Z,61.21
2023-04-05T14:19:04.016Z,61.47
2023-04-05T14:21:34.212Z,61.48
2023-04-05T14:24:02.347Z,61.57
2023-04-05T14:26:32.092Z,61.60
2023-04-05T14:29:00.141Z,61.56
2023-04-05T14:31:28.522Z,61.70
2023-04-05T14:33:58.028Z,61.79
2023-04-05T14:36:35.010Z,62.05
2023-04-05T14:39:05.131Z,61.87
2023-04-05T14:41:33.367Z,62.38
2023-04-05T14:44:02.380Z,62.37
2023-04-05T14:46:30.734Z,62.52
2023-04-05T14:48:58.759Z,62.69
2023-04-05T14:51:31.920Z,62.81
2023-04-05T14:53:59.999Z,62.79
2023-04-05T14:56:27.990Z,62.84
2023-04-05T14:58:56.214Z,62.73
2023-04-05T15:01:24.309Z,62.62
2023-04-05T15:03:54.000Z,62.76
2023-04-05T15:06:22.122Z,62.80
2023-04-05T15:08:52.855Z,62.71
2023-04-05T15:11:22.172Z,62.75
2023-04-05T15:13:51.479Z,62.80
2023-04-05T15:16:19.600Z,62.87
2023-04-05T15:18:48.103Z,62.91
2023-04-05T15:21:16.087Z,62.85
2023-04-05T15:23:44.388Z,62.81
2023-04-05T15:26:14.132Z,63.03
2023-04-05T15:28:42.116Z,63.05
2023-04-05T15:31:10.404Z,63.29
2023-04-05T15:33:38.471Z,63.43
2023-04-05T15:36:07.669Z,63.53
2023-04-05T15:38:35.725Z,63.80
2023-04-05T15:41:04.138Z,64.08
2023-04-05T15:43:34.827Z,64.10
2023-04-05T15:46:07.855Z,64.26
2023-04-05T15:48:36.073Z,64.30
2023-04-05T15:51:06.930Z,64.36
2023-04-05T15:53:36.419Z,64.35
2023-04-05T15:56:04.462Z,64.36
2023-04-05T15:58:32.477Z,64.16
2023-04-05T16:01:01.987Z,64.30
2023-04-05T16:03:30.408Z,64.34
2023-04-05T16:05:58.572Z,64.38
2023-04-05T16:08:27.078Z,64.42
2023-04-05T16:10:56.660Z,64.48
2023-04-05T16:13:24.815Z,64.74
2023-04-05T16:15:52.813Z,64.41
2023-04-05T16:18:23.842Z,64.49
2023-04-05T16:20:52.192Z,64.58
2023-04-05T16:23:20.369Z,64.24
2023-04-05T16:25:48.472Z,64.50
2023-04-05T16:28:17.088Z,64.67
2023-04-05T16:30:47.172Z,64.76
2023-04-05T16:33:16.383Z,64.76
2023-04-05T16:35:46.558Z,64.74
2023-04-05T16:38:14.627Z,64.87
2023-04-05T16:40:42.588Z,64.85
2023-04-05T16:43:11.082Z,64.80
2023-04-05T16:45:39.992Z,64.92
2023-04-05T16:48:08.816Z,65.13
2023-04-05T16:50:37.464Z,65.04
2023-04-05T16:53:06.905Z,64.86
2023-04-05T16:55:35.537Z,64.92
2023-04-05T16:58:04.776Z,64.84
2023-04-05T17:00:33.675Z,64.58
2023-04-05T17:03:02.378Z,64.62
2023-04-05T17:05:31.709Z,64.73
2023-04-05T17:07:59.744Z,64.63
2023-04-05T17:10:29.740Z,64.82
2023-04-05T17:12:57.766Z,64.79
2023-04-05T17:15:26.310Z,64.81
2023-04-05T17:17:54.394Z,64.71
2023-04-05T17:20:23.216Z,64.67
2023-04-05T17:22:51.405Z,64.64
2023-04-05T17:25:19.675Z,65.01
2023-04-05T17:27:49.208Z,64.73
2023-04-05T17:30:17.635Z,64.88
2023-04-05T17:32:45.723Z,65.00
2023-04-05T17:35:13.722Z,65.03
2023-04-05T17:37:41.742Z,64.95
2023-04-05T17:40:10.702Z,65.12
2023-04-05T17:42:38.697Z,65.12
2023-04-05T17:45:09.835Z,65.16
2023-04-05T17:47:38.427Z,65.33
2023-04-05T17:50:07.353Z,65.23
2023-04-05T17:52:35.645Z,65.37
2023-04-05T17:55:04.229Z,65.56
2023-04-05T17:57:32.232Z,65.81
2023-04-05T18:00:00.328Z,65.80
2023-04-05T18:02:29.794Z,66.23
2023-04-05T18:05:00.208Z,66.31
2023-04-05T18:07:28.579Z,66.60
2023-04-05T18:09:58.236Z,66.84
2023-04-05T18:12:28.848Z,66.56
2023-04-05T18:14:57.177Z,67.01
2023-04-05T18:17:25.627Z,67.13
2023-04-05T18:19:55.044Z,67.19
2023-04-05T18:22:23.084Z,67.34
2023-04-05T18:24:52.093Z,67.27
2023-04-05T18:27:20.143Z,67.39
2023-04-05T18:29:48.560Z,67.32
2023-04-05T18:32:17.682Z,67.38
2023-04-05T18:34:45.896Z,67.39
2023-04-05T18:37:15.264Z,67.65
2023-04-05T18:39:45.781Z,67.67
2023-04-05T18:42:16.237Z,67.65
2023-04-05T18:44:48.194Z,67.66
2023-04-05T18:47:16.421Z,67.79
2023-04-05T18:49:44.426Z,67.81
2023-04-05T18:52:14.256Z,67.82
2023-04-05T18:54:43.580Z,67.80
2023-04-05T18:57:11.796Z,67.97
2023-04-05T18:59:40.041Z,67.90
2023-04-05T19:02:08.328Z,67.95
2023-04-05T19:04:36.632Z,67.78
2023-04-05T19:07:06.263Z,68.04
2023-04-05T19:09:34.518Z,67.94
2023-04-05T19:12:04.330Z,67.88
2023-04-05T19:14:32.442Z,67.85
2023-04-05T19:17:01.675Z,67.87
2023-04-05T19:19:29.694Z,67.79
2023-04-05T19:21:57.870Z,67.82
2023-04-05T19:24:26.001Z,67.85
2023-04-05T19:26:56.879Z,67.80
2023-04-05T19:29:27.478Z,67.81
2023-04-05T19:31:55.986Z,67.87
2023-04-05T19:34:29.405Z,67.96
2023-04-05T19:36:57.593Z,67.89
2023-04-05T19:39:25.788Z,68.00
2023-04-05T19:41:55.085Z,68.00
2023-04-05T19:44:39.793Z,68.15
2023-04-05T19:47:13.911Z,67.91
2023-04-05T19:49:42.504Z,68.10
2023-04-05T19:52:12.308Z,68.02
2023-04-05T19:54:40.410Z,67.99
2023-04-05T19:57:09.878Z,67.93
2023-04-05T19:59:39.945Z,67.91
2023-04-05T20:02:12.411Z,67.87
2023-04-05T20:04:41.777Z,68.04
2023-04-05T20:07:10.554Z,68.20
2023-04-05T20:09:40.249Z,67.95
2023-04-05T20:12:09.095Z,67.91
2023-04-05T20:14:41.280Z,67.88
2023-04-05T20:17:12.320Z,68.07
2023-04-05T20:19:41.485Z,68.09
2023-04-05T20:22:10.998Z,68.16
2023-04-05T20:24:40.439Z,68.27
2023-04-05T20:27:08.467Z,68.17
2023-04-05T20:29:36.568Z,68.05
2023-04-05T20:32:06.464Z,68.21
2023-04-05T20:34:35.464Z,68.08
2023-04-05T20:37:04.383Z,68.13
2023-04-05T20:39:32.392Z,68.44
2023-04-05T20:42:00.543Z,68.31
2023-04-05T20:44:31.473Z,68.27
2023-04-05T20:47:01.352Z,68.29
2023-04-05T20:49:35.518Z,68.42
2023-04-05T20:52:07.636Z,68.51
2023-04-05T20:54:40.291Z,68.35
2023-04-05T20:57:09.785Z,68.54
2023-04-05T20:59:37.809Z,68.33
2023-04-05T21:02:06.128Z,68.58
2023-04-05T21:04:35.960Z,68.57
2023-04-05T21:07:05.321Z,68.64
2023-04-05T21:09:33.584Z,68.52
2023-04-05T21:12:01.875Z,68.56
2023-04-05T21:14:31.670Z,68.53
2023-04-05T21:16:59.986Z,68.49
2023-04-05T21:19:28.501Z,68.45
2023-04-05T21:21:59.164Z,68.61
2023-04-05T21:24:27.227Z,68.51
2023-04-05T21:26:56.499Z,68.47
2023-04-05T21:29:24.582Z,68.50
2023-04-05T21:31:54.625Z,68.56
2023-04-05T21:34:25.504Z,68.63
2023-04-05T21:36:53.765Z,68.55
2023-04-05T21:39:25.538Z,68.71
2023-04-05T21:41:53.891Z,68.77
2023-04-05T21:44:21.882Z,68.72
2023-04-05T21:46:49.993Z,68.68
2023-04-05T21:49:19.419Z,68.93
2023-04-05T21:51:47.442Z,68.87
2023-04-05T21:54:16.337Z,68.77
2023-04-05T21:56:46.188Z,68.94
2023-04-05T21:59:15.500Z,68.76
2023-04-05T22:01:44.461Z,68.75
2023-04-05T22:04:13.219Z,68.62
2023-04-05T22:06:42.870Z,68.86
2023-04-05T22:09:11.171Z,68.72
2023-04-05T22:11:39.186Z,68.77
2023-04-05T22:14:09.799Z,68.72
2023-04-05T22:16:38.584Z,68.67
2023-04-05T22:19:07.925Z,68.72
2023-04-05T22:21:36.149Z,68.80
2023-04-05T22:24:05.475Z,68.75
2023-04-05T22:26:34.144Z,68.72
2023-04-05T22:29:02.337Z,68.80
2023-04-05T22:31:31.770Z,68.92
2023-04-05T22:34:01.089Z,69.12
2023-04-05T22:36:32.121Z,68.84
2023-04-05T22:39:00.153Z,68.92
2023-04-05T22:41:28.136Z,68.74
2023-04-05T22:43:56.085Z,68.85
2023-04-05T22:46:24.248Z,68.90
2023-04-05T22:48:53.723Z,68.82
2023-04-05T22:51:23.101Z,68.95
2023-04-05T22:53:53.694Z,68.95
2023-04-05T22:56:24.153Z,69.12
2023-04-05T22:58:52.237Z,69.11
2023-04-05T23:01:20.263Z,69.05
2023-04-05T23:03:48.527Z,69.02
2023-04-05T23:06:18.160Z,68.88
2023-04-05T23:08:46.277Z,68.77
2023-04-05T23:11:14.270Z,68.72
2023-04-05T23:13:42.403Z,68.90
2023-04-05T23:16:10.493Z,69.06
2023-04-05T23:18:38.483Z,69.01
2023-04-05T23:21:06.745Z,69.28
2023-04-05T23:23:36.368Z,69.28
2023-04-05T23:26:04.511Z,69.41
2023-04-05T23:28:32.538Z,69.74
2023-04-05T23:31:01.957Z,69.47
2023-04-05T23:33:30.516Z,69.30
2023-04-05T23:35:58.589Z,69.59
2023-04-05T23:38:26.923Z,69.86
2023-04-05T23:40:58.033Z,70.03
2023-04-05T23:43:26.410Z,70.12
2023-04-05T23:45:54.332Z,70.08
2023-04-05T23:48:22.570Z,70.13
2023-04-05T23:50:50.745Z,69.71
2023-04-05T23:53:18.713Z,69.54
2023-04-05T23:55:47.280Z,69.85
2023-04-05T23:58:16.944Z,69.63
